Time;durP1;ratioP1;P1;durP2;ratioP2;P2;SDS_P1;SDS_P2;PMS_P1;PMS_P2;Temp;Humidity;BMP_temperature;BMP_pressure;BME280_temperature;BME280_humidity;BME280_pressure;Samples;Min_cycle;Max_cycle;Signal;HPM_P1;HPM_P2
2022/10/09 00:01:03;;;;;;;8.40;4.72;;;;;;;13.13;100.00;96135.16;6175517;23;20039;-67
2022/10/09 00:03:28;;;;;;;7.30;4.88;;;;;;;13.13;100.00;96129.03;6149624;23;20009;-67
2022/10/09 00:05:54;;;;;;;5.80;4.60;;;;;;;13.13;100.00;96135.16;6175665;23;20086;-67
2022/10/09 00:08:19;;;;;;;7.75;4.20;;;;;;;13.09;100.00;96140.91;6173265;23;20013;-69
2022/10/09 00:10:44;;;;;;;8.77;4.25;;;;;;;13.08;100.00;96134.75;6176566;23;20005;-68
2022/10/09 00:13:10;;;;;;;4.68;4.28;;;;;;;13.06;100.00;96135.91;6177976;23;20002;-70
2022/10/09 00:15:41;;;;;;;8.55;4.20;;;;;;;13.07;100.00;96137.56;6177770;23;20036;-68
2022/10/09 00:18:08;;;;;;;8.20;4.68;;;;;;;13.06;100.00;96135.91;6177792;23;20632;-72
2022/10/09 00:20:38;;;;;;;10.95;4.30;;;;;;;13.04;100.00;96136.03;6177775;23;20000;-62
2022/10/09 00:23:03;;;;;;;7.88;4.38;;;;;;;13.03;100.00;96129.09;6177977;23;20008;-61
2022/10/09 00:25:29;;;;;;;7.65;4.55;;;;;;;13.01;100.00;96126.59;6177771;23;20005;-64
2022/10/09 00:27:58;;;;;;;5.60;4.07;;;;;;;12.98;100.00;96126.88;6176935;23;20008;-64
2022/10/09 00:30:24;;;;;;;5.93;3.75;;;;;;;12.99;100.00;96127.72;6177671;23;20004;-64
2022/10/09 00:32:49;;;;;;;8.95;4.13;;;;;;;12.97;100.00;96127.03;6177551;23;20004;-64
2022/10/09 00:35:14;;;;;;;8.40;4.32;;;;;;;12.94;100.00;96132.63;6177636;23;20009;-62
2022/10/09 00:37:40;;;;;;;10.30;4.47;;;;;;;12.92;100.00;96129.28;6177163;23;20080;-72
2022/10/09 00:40:06;;;;;;;7.95;5.10;;;;;;;12.89;100.00;96131.22;6178119;23;20000;-62
2022/10/09 00:42:31;;;;;;;7.60;4.47;;;;;;;12.90;100.00;96127.59;6177495;23;20150;-61
2022/10/09 00:44:59;;;;;;;6.95;4.07;;;;;;;12.89;100.00;96130.41;6177652;23;19997;-62
2022/10/09 00:47:52;;;;;;;7.28;3.90;;;;;;;12.92;100.00;96126.63;6177887;23;20004;-61
2022/10/09 00:50:22;;;;;;;4.35;3.95;;;;;;;12.88;100.00;96124.28;6175716;23;20012;-61
2022/10/09 00:52:51;;;;;;;6.32;4.00;;;;;;;12.88;100.00;96124.28;6176905;23;20058;-61
2022/10/09 00:55:17;;;;;;;7.53;3.92;;;;;;;12.86;100.00;96122.78;6176870;23;20408;-66
2022/10/09 00:57:43;;;;;;;6.40;4.13;;;;;;;12.83;100.00;96123.06;6177464;23;20057;-64
2022/10/09 01:00:11;;;;;;;13.52;4.07;;;;;;;12.80;100.00;96115.41;6176671;23;20115;-72
2022/10/09 01:02:37;;;;;;;6.22;4.00;;;;;;;12.80;100.00;96112.78;6175653;23;20016;-72
2022/10/09 01:05:04;;;;;;;7.10;4.03;;;;;;;12.78;100.00;96110.28;6176306;23;20001;-74
2022/10/09 01:07:35;;;;;;;8.20;3.80;;;;;;;12.78;100.00;96118.22;6176792;23;20508;-73
2022/10/09 01:10:25;;;;;;;4.65;3.83;;;;;;;12.74;100.00;96112.38;6176873;23;20351;-73
2022/10/09 01:12:50;;;;;;;3.88;3.58;;;;;;;12.72;100.00;96108.25;6177659;23;20024;-73
2022/10/09 01:15:26;;;;;;;5.75;3.50;;;;;;;12.70;100.00;96102.25;6177274;23;20009;-60
2022/10/09 01:18:12;;;;;;;13.43;3.78;;;;;;;12.69;100.00;96103.22;6175758;23;20131;-72
2022/10/09 01:21:16;;;;;;;4.88;3.42;;;;;;;12.67;100.00;96095.47;6177535;23;20017;-72
2022/10/09 01:24:06;;;;;;;6.20;3.55;;;;;;;12.68;100.00;96096.28;6179158;23;20075;-72
2022/10/09 01:26:49;;;;;;;13.63;4.00;;;;;;;12.69;100.00;96085.56;6179376;23;20105;-72
2022/10/09 01:29:18;;;;;;;7.10;4.20;;;;;;;12.69;100.00;96084.72;6177199;23;20009;-72
2022/10/09 01:31:47;;;;;;;9.27;4.05;;;;;;;12.67;100.00;96082.25;6177428;23;19997;-72
2022/10/09 01:34:15;;;;;;;5.38;3.47;;;;;;;12.67;100.00;96076.13;6177189;23;20004;-66
2022/10/09 01:36:42;;;;;;;4.40;3.65;;;;;;;12.69;100.00;96079.44;6177457;23;20446;-73
2022/10/09 01:39:11;;;;;;;4.28;3.75;;;;;;;12.66;100.00;96085.03;6177260;23;19997;-66
2022/10/09 01:41:37;;;;;;;8.73;4.22;;;;;;;12.62;100.00;96089.78;6177339;23;20012;-66
2022/10/09 01:44:02;;;;;;;6.32;3.97;;;;;;;12.60;100.00;96082.00;6177409;23;20016;-66
2022/10/09 01:46:31;;;;;;;15.52;6.53;;;;;;;12.73;100.00;96086.94;6177780;23;19994;-66
2022/10/09 01:49:04;;;;;;;12.38;5.97;;;;;;;12.69;100.00;96082.09;6177759;23;20005;-66
2022/10/09 01:51:53;;;;;;;6.82;4.57;;;;;;;12.59;100.00;96077.69;6177316;23;20042;-66
2022/10/09 01:54:33;;;;;;;11.27;4.30;;;;;;;12.58;100.00;96085.75;6176754;23;20005;-65
2022/10/09 01:57:03;;;;;;;12.13;4.60;;;;;;;12.56;100.00;96077.13;6177848;22;20012;-61
2022/10/09 01:59:35;;;;;;;7.85;5.40;;;;;;;12.56;100.00;96077.97;6177574;23;20062;-61
2022/10/09 02:02:00;;;;;;;5.95;4.93;;;;;;;12.52;100.00;96079.25;6177076;23;20072;-61
2022/10/09 02:04:28;;;;;;;9.23;4.57;;;;;;;12.53;100.00;96074.78;6176693;23;20028;-61
2022/10/09 02:06:54;;;;;;;4.90;4.32;;;;;;;12.53;100.00;96073.00;6177202;23;20005;-61
2022/10/09 02:09:20;;;;;;;4.65;3.92;;;;;;;12.51;100.00;96071.47;6177677;23;20005;-61
2022/10/09 02:11:53;;;;;;;8.63;4.65;;;;;;;12.47;100.00;96063.00;6177154;23;20004;-72
2022/10/09 02:14:19;;;;;;;5.43;4.00;;;;;;;12.47;100.00;96070.91;6177158;23;20013;-57
2022/10/09 02:16:49;;;;;;;5.93;3.55;;;;;;;12.48;100.00;96069.13;6177223;23;20445;-64
2022/10/09 02:19:29;;;;;;;5.18;3.70;;;;;;;12.45;100.00;96071.06;6176970;23;20016;-64
2022/10/09 02:22:20;;;;;;;7.20;4.03;;;;;;;12.46;100.00;96056.03;6177251;23;20068;-64
2022/10/09 02:24:46;;;;;;;5.82;3.60;;;;;;;12.48;100.00;96067.28;6177382;23;20004;-64
2022/10/09 02:27:12;;;;;;;6.70;3.50;;;;;;;12.45;100.00;96065.78;6177156;23;20001;-64
2022/10/09 02:29:41;;;;;;;4.63;3.40;;;;;;;12.45;100.00;96065.78;6177127;23;20050;-65
2022/10/09 02:32:07;;;;;;;8.20;3.78;;;;;;;12.42;100.00;96060.81;6176539;22;20052;-65
2022/10/09 02:34:33;;;;;;;5.68;3.92;;;;;;;12.43;100.00;96064.25;6177553;23;20410;-66
2022/10/09 02:36:59;;;;;;;7.55;3.97;;;;;;;12.43;100.00;96061.63;6177215;23;20043;-66
2022/10/09 02:39:24;;;;;;;4.63;3.63;;;;;;;12.39;100.00;96054.97;6176863;23;19997;-66
2022/10/09 02:41:49;;;;;;;8.68;4.15;;;;;;;12.39;100.00;96054.97;6177341;23;20004;-66
2022/10/09 02:44:15;;;;;;;7.13;3.80;;;;;;;12.34;100.00;96057.22;6177033;23;20123;-66
2022/10/09 02:46:40;;;;;;;6.97;3.70;;;;;;;12.31;100.00;96063.59;6150392;22;20446;-66
2022/10/09 02:49:05;;;;;;;9.52;4.38;;;;;;;12.26;100.00;96056.09;6177055;23;20019;-66
2022/10/09 02:51:31;;;;;;;9.18;3.65;;;;;;;12.27;100.00;96060.44;6177160;23;20004;-72
2022/10/09 02:53:58;;;;;;;4.13;3.72;;;;;;;12.27;100.00;96059.59;6176876;23;20017;-61
2022/10/09 02:56:24;;;;;;;4.82;3.22;;;;;;;12.25;100.00;96053.63;6176502;23;20431;-61
2022/10/09 02:58:50;;;;;;;6.05;4.30;;;;;;;12.24;100.00;96058.06;6177049;23;20008;-61
2022/10/09 03:01:15;;;;;;;5.47;3.50;;;;;;;12.26;100.00;96060.56;6176738;23;20472;-61
2022/10/09 03:03:41;;;;;;;3.97;3.28;;;;;;;12.23;100.00;96059.03;6176900;23;20005;-61
2022/10/09 03:06:12;;;;;;;5.18;3.42;;;;;;;12.26;100.00;96055.28;6176637;23;20054;-61
2022/10/09 03:08:41;;;;;;;6.93;3.60;;;;;;;12.25;100.00;96061.53;6176633;23;19997;-61
2022/10/09 03:11:07;;;;;;;7.53;3.63;;;;;;;12.23;100.00;96060.84;6177185;23;20112;-61
2022/10/09 03:13:32;;;;;;;8.48;3.80;;;;;;;12.21;100.00;96063.63;6177335;23;20317;-66
2022/10/09 03:16:09;;;;;;;5.82;3.85;;;;;;;12.24;100.00;96073.91;6150906;22;20004;-66
2022/10/09 03:18:35;;;;;;;8.50;4.05;;;;;;;12.20;100.00;96067.25;6178142;23;20024;-66
2022/10/09 03:21:07;;;;;;;5.93;3.55;;;;;;;12.19;100.00;96062.94;6177704;23;20487;-66
2022/10/09 03:23:33;;;;;;;5.40;3.45;;;;;;;12.18;100.00;96066.56;6178129;23;20013;-65
2022/10/09 03:26:01;;;;;;;6.60;4.10;;;;;;;12.17;100.00;96070.19;6177749;23;20431;-66
2022/10/09 03:28:27;;;;;;;9.80;3.35;;;;;;;12.17;100.00;96073.66;6177879;23;20001;-66
2022/10/09 03:30:53;;;;;;;4.28;3.50;;;;;;;12.15;100.00;96069.50;6177948;23;19997;-73
2022/10/09 03:33:19;;;;;;;8.52;3.60;;;;;;;12.11;100.00;96074.22;6178106;23;20012;-66
2022/10/09 03:35:46;;;;;;;9.05;3.78;;;;;;;12.07;100.00;96072.84;6177921;23;20037;-66
2022/10/09 03:38:12;;;;;;;4.55;3.42;;;;;;;12.06;100.00;96079.09;6178309;23;19997;-65
2022/10/09 03:40:37;;;;;;;3.53;3.10;;;;;;;12.07;100.00;96082.56;6178144;23;20016;-66
2022/10/09 03:43:02;;;;;;;3.63;3.17;;;;;;;12.05;100.00;96077.41;6177842;23;20076;-66
2022/10/09 03:45:28;;;;;;;5.57;3.55;;;;;;;12.05;100.00;96077.41;6177843;23;19993;-66
2022/10/09 03:47:53;;;;;;;5.05;3.45;;;;;;;12.04;100.00;96087.13;6177990;23;20495;-61
2022/10/09 03:50:19;;;;;;;4.50;3.30;;;;;;;12.06;100.00;96084.38;6178190;22;20011;-63
2022/10/09 03:52:44;;;;;;;7.75;3.42;;;;;;;12.07;100.00;96083.38;6177911;23;20347;-61
2022/10/09 03:55:09;;;;;;;7.18;3.17;;;;;;;12.07;100.00;96086.03;6178438;23;20091;-60
2022/10/09 03:57:35;;;;;;;4.53;3.50;;;;;;;12.04;100.00;96092.41;6177841;23;20009;-61
2022/10/09 04:00:00;;;;;;;7.03;4.07;;;;;;;12.06;100.00;96086.19;6177719;23;20414;-61
2022/10/09 04:02:26;;;;;;;5.10;3.60;;;;;;;12.06;100.00;96078.28;6177938;23;20080;-61
2022/10/09 04:04:51;;;;;;;3.97;3.58;;;;;;;12.02;100.00;96086.44;6177746;23;20393;-61
2022/10/09 04:07:16;;;;;;;7.57;3.88;;;;;;;12.01;100.00;96086.59;6177754;23;20424;-73
2022/10/09 04:09:42;;;;;;;5.88;3.63;;;;;;;11.98;100.00;96085.03;6177922;23;20053;-73
2022/10/09 04:12:07;;;;;;;9.68;4.28;;;;;;;11.95;100.00;96077.41;6178109;23;19997;-72
2022/10/09 04:14:33;;;;;;;5.55;3.33;;;;;;;11.93;100.00;96078.50;6177794;23;20009;-72
2022/10/09 04:16:58;;;;;;;6.30;3.55;;;;;;;11.87;100.00;96083.38;6177629;23;20009;-72
2022/10/09 04:19:23;;;;;;;6.88;3.88;;;;;;;11.82;100.00;96082.13;6177558;23;20113;-72
2022/10/09 04:21:49;;;;;;;5.60;3.78;;;;;;;11.78;100.00;96089.50;6177623;23;20059;-72
2022/10/09 04:24:14;;;;;;;8.25;3.72;;;;;;;11.75;100.00;96082.69;6177992;23;20080;-72
2022/10/09 04:26:39;;;;;;;9.35;4.00;;;;;;;11.75;100.00;96090.59;6178160;23;20470;-66
2022/10/09 04:29:05;;;;;;;7.93;3.40;;;;;;;11.76;100.00;96083.53;6177099;23;20008;-66
2022/10/09 04:31:30;;;;;;;6.03;3.63;;;;;;;11.72;100.00;96082.16;6151385;23;20013;-63
2022/10/09 04:33:55;;;;;;;3.95;3.40;;;;;;;11.70;100.00;96089.34;6176972;23;20008;-62
2022/10/09 04:36:21;;;;;;;5.78;3.90;;;;;;;11.69;100.00;96085.91;6177616;23;20001;-63
2022/10/09 04:38:46;;;;;;;9.63;4.18;;;;;;;11.68;100.00;96084.25;6177863;23;20028;-63
2022/10/09 04:41:12;;;;;;;6.78;3.90;;;;;;;11.70;100.00;96084.06;6177940;23;20039;-63
2022/10/09 04:43:37;;;;;;;6.38;3.65;;;;;;;11.69;100.00;96088.53;6177791;23;20446;-63
2022/10/09 04:46:09;;;;;;;4.57;4.18;;;;;;;11.65;100.00;96083.66;6177691;23;19997;-57
2022/10/09 04:48:38;;;;;;;7.93;4.38;;;;;;;11.58;100.00;96073.69;6177414;23;20010;-64
2022/10/09 04:51:05;;;;;;;4.60;4.15;;;;;;;11.56;100.00;96074.78;6177484;23;20462;-60
2022/10/09 04:53:31;;;;;;;6.80;4.15;;;;;;;11.52;100.00;96079.53;6177634;22;20001;-61
2022/10/09 04:55:57;;;;;;;8.02;4.47;;;;;;;11.49;100.00;96084.22;6177406;23;20076;-61
2022/10/09 04:58:22;;;;;;;6.60;4.05;;;;;;;11.46;100.00;96070.34;6177546;23;20031;-61
2022/10/09 05:00:47;;;;;;;6.78;4.10;;;;;;;11.43;100.00;96078.53;6177591;23;19997;-60
2022/10/09 05:03:13;;;;;;;6.68;4.00;;;;;;;11.42;100.00;96076.88;6178076;22;20007;-60
2022/10/09 05:05:38;;;;;;;10.50;4.20;;;;;;;11.42;100.00;96082.16;6177866;23;20561;-58
2022/10/09 05:08:04;;;;;;;4.95;3.80;;;;;;;11.44;100.00;96082.00;6177779;23;20011;-71
2022/10/09 05:10:31;;;;;;;6.70;4.50;;;;;;;11.44;100.00;96089.91;6177598;22;20060;-72
2022/10/09 05:12:57;;;;;;;5.32;4.10;;;;;;;11.43;100.00;96086.44;6177566;23;20036;-72
2022/10/09 05:15:23;;;;;;;7.20;4.35;;;;;;;11.44;100.00;96077.56;6177620;23;19997;-71
2022/10/09 05:17:48;;;;;;;7.55;4.30;;;;;;;11.43;100.00;96083.81;6177213;23;20012;-72
2022/10/09 05:20:14;;;;;;;7.03;4.50;;;;;;;11.42;100.00;96071.59;6178082;23;20005;-71
2022/10/09 05:22:39;;;;;;;6.00;4.45;;;;;;;11.42;100.00;96086.56;6177474;23;20467;-72
2022/10/09 05:25:05;;;;;;;4.70;4.30;;;;;;;11.44;100.00;96088.13;6177346;23;20072;-64
2022/10/09 05:27:31;;;;;;;7.22;4.70;;;;;;;11.41;100.00;96075.22;6177589;23;20001;-71
2022/10/09 05:29:56;;;;;;;6.47;4.28;;;;;;;11.43;100.00;96082.97;6176940;23;20350;-63
2022/10/09 05:32:21;;;;;;;7.47;4.43;;;;;;;11.44;100.00;96080.22;6177333;23;20084;-65
2022/10/09 05:34:47;;;;;;;7.00;4.10;;;;;;;11.45;100.00;96079.25;6177266;23;20312;-64
2022/10/09 05:37:12;;;;;;;9.75;4.72;;;;;;;11.45;100.00;96079.25;6177711;23;20076;-64
2022/10/09 05:39:38;;;;;;;7.15;4.07;;;;;;;11.44;100.00;96084.63;6177437;23;20447;-64
2022/10/09 05:42:03;;;;;;;8.70;4.55;;;;;;;11.45;100.00;96088.94;6177553;23;20008;-64
2022/10/09 05:44:29;;;;;;;4.70;4.20;;;;;;;11.43;100.00;96086.44;6177388;23;20434;-64
2022/10/09 05:46:54;;;;;;;5.75;4.28;;;;;;;11.44;100.00;96087.28;6177101;23;20459;-66
2022/10/09 05:49:20;;;;;;;5.13;4.50;;;;;;;11.41;100.00;96088.41;6177819;23;20406;-66
2022/10/09 05:51:45;;;;;;;7.78;4.18;;;;;;;11.42;100.00;96076.03;6177344;23;19997;-66
2022/10/09 05:54:16;;;;;;;6.45;4.18;;;;;;;11.41;100.00;96087.56;6177419;23;20011;-66
2022/10/09 05:56:43;;;;;;;8.48;4.63;;;;;;;11.42;100.00;96089.22;6177569;23;20001;-66
2022/10/09 05:59:18;;;;;;;8.48;4.57;;;;;;;11.43;100.00;96075.06;6177808;23;20012;-66
2022/10/09 06:01:47;;;;;;;6.18;4.07;;;;;;;11.41;100.00;96079.63;6177850;23;20021;-66
2022/10/09 06:04:19;;;;;;;5.88;4.18;;;;;;;11.40;100.00;96081.47;6177564;23;20367;-62
2022/10/09 06:06:46;;;;;;;4.93;4.25;;;;;;;11.40;100.00;96078.81;6177873;23;20343;-72
2022/10/09 06:09:12;;;;;;;7.00;4.60;;;;;;;11.44;100.00;96074.94;6177836;22;20005;-71
2022/10/09 06:11:39;;;;;;;8.00;5.00;;;;;;;11.49;100.00;96079.78;6177626;23;20001;-71
2022/10/09 06:14:07;;;;;;;7.85;4.38;;;;;;;11.50;100.00;96076.19;6177019;23;20043;-72
2022/10/09 06:16:35;;;;;;;5.40;4.25;;;;;;;11.52;100.00;96083.94;6177765;23;20040;-71
2022/10/09 06:19:01;;;;;;;8.95;4.18;;;;;;;11.52;100.00;96083.94;6177306;23;20358;-72
2022/10/09 06:21:27;;;;;;;8.68;4.25;;;;;;;11.55;100.00;96083.66;6177658;23;20001;-72
2022/10/09 06:23:55;;;;;;;7.20;4.72;;;;;;;11.57;100.00;96081.72;6177954;23;20046;-58
2022/10/09 06:26:22;;;;;;;6.35;4.97;;;;;;;11.57;100.00;96087.00;6177845;22;19993;-63
2022/10/09 06:28:48;;;;;;;4.80;4.28;;;;;;;11.56;100.00;96091.44;6176986;23;20466;-62
2022/10/09 06:31:16;;;;;;;6.93;4.68;;;;;;;11.52;100.00;96092.72;6177353;23;20008;-63
2022/10/09 06:33:43;;;;;;;5.65;5.00;;;;;;;11.55;100.00;96095.06;6177086;23;20046;-62
2022/10/09 06:36:11;;;;;;;5.22;4.60;;;;;;;11.59;100.00;96098.22;6177330;23;20044;-62
2022/10/09 06:38:37;;;;;;;7.50;4.50;;;;;;;11.58;100.00;96100.06;6177557;23;20558;-63
2022/10/09 06:41:09;;;;;;;11.95;4.50;;;;;;;11.58;100.00;96099.22;6177302;23;20443;-62
2022/10/09 06:43:34;;;;;;;6.30;4.53;;;;;;;11.61;100.00;96098.97;6177450;23;20001;-72
2022/10/09 06:46:01;;;;;;;8.15;4.68;;;;;;;11.61;100.00;96097.13;6149879;22;20008;-64
2022/10/09 06:48:30;;;;;;;5.68;4.60;;;;;;;11.62;100.00;96100.63;6177426;23;20020;-64
2022/10/09 06:51:07;;;;;;;8.00;5.03;;;;;;;11.63;100.00;96101.44;6176120;22;20011;-64
2022/10/09 06:53:34;;;;;;;6.20;4.72;;;;;;;11.65;100.00;96099.50;6177234;23;20444;-64
2022/10/09 06:56:00;;;;;;;6.63;4.50;;;;;;;11.66;100.00;96102.00;6177333;23;20001;-64
2022/10/09 06:58:26;;;;;;;6.20;4.97;;;;;;;11.68;100.00;96100.06;6177762;23;20008;-64
2022/10/09 07:01:02;;;;;;;6.15;4.60;;;;;;;11.75;100.00;96101.16;6177791;23;19997;-57
2022/10/09 07:03:27;;;;;;;5.07;4.65;;;;;;;11.80;100.00;96107.81;6177495;23;20005;-61
2022/10/09 07:05:53;;;;;;;6.03;4.20;;;;;;;11.87;100.00;96103.66;6176631;23;20004;-62
2022/10/09 07:08:19;;;;;;;6.13;5.00;;;;;;;11.90;100.00;96103.38;6176980;23;20016;-62
2022/10/09 07:10:44;;;;;;;5.63;4.85;;;;;;;11.93;100.00;96100.47;6177293;22;20004;-62
2022/10/09 07:13:10;;;;;;;5.32;4.82;;;;;;;11.98;100.00;96108.78;6176295;23;20001;-61
2022/10/09 07:15:35;;;;;;;8.57;5.38;;;;;;;11.99;100.00;96113.09;6175799;23;20364;-63
2022/10/09 07:18:02;;;;;;;5.80;4.65;;;;;;;12.01;100.00;96105.88;6174621;23;20088;-62
2022/10/09 07:20:27;;;;;;;9.68;4.97;;;;;;;12.12;100.00;96104.09;6175302;23;20500;-63
2022/10/09 07:22:52;;;;;;;7.40;4.80;;;;;;;12.11;100.00;96116.44;6176154;23;20001;-63
2022/10/09 07:25:18;;;;;;;7.78;5.15;;;;;;;12.14;100.00;96112.69;6175435;23;20001;-63
2022/10/09 07:27:43;;;;;;;7.03;5.38;;;;;;;12.16;100.00;96118.66;6176230;23;19997;-62
2022/10/09 07:30:10;;;;;;;7.70;4.50;;;;;;;12.22;100.00;96114.63;6176626;23;20032;-61
2022/10/09 07:32:35;;;;;;;11.55;5.90;;;;;;;12.29;100.00;96119.19;6176925;23;20004;-63
2022/10/09 07:35:00;;;;;;;8.25;5.20;;;;;;;12.32;100.00;96118.06;6176690;23;20013;-66
2022/10/09 07:37:26;;;;;;;9.55;5.22;;;;;;;12.32;100.00;96120.72;6176389;23;20020;-66
2022/10/09 07:39:51;;;;;;;6.85;5.30;;;;;;;12.32;100.00;96124.19;6176494;23;20343;-70
2022/10/09 07:42:16;;;;;;;9.20;5.20;;;;;;;12.32;100.00;96121.56;6175649;23;20113;-70
2022/10/09 07:44:42;;;;;;;7.85;4.85;;;;;;;12.30;100.00;96131.44;6173824;23;20456;-69
2022/10/09 07:47:07;;;;;;;8.63;5.55;;;;;;;12.31;100.00;96129.59;6176088;23;20001;-69
2022/10/09 07:49:32;;;;;;;7.80;5.10;;;;;;;12.36;100.00;96129.19;6175424;23;20002;-69
2022/10/09 07:51:58;;;;;;;11.88;5.03;;;;;;;12.40;100.00;96131.41;6174870;23;20339;-69
2022/10/09 07:54:23;;;;;;;5.03;4.55;;;;;;;12.42;100.00;96123.31;6175732;23;20074;-69
2022/10/09 07:56:49;;;;;;;6.20;4.82;;;;;;;12.42;100.00;96134.75;6174990;23;20435;-69
2022/10/09 07:59:15;;;;;;;8.65;4.70;;;;;;;12.42;100.00;96129.47;6174534;23;20005;-71
2022/10/09 08:01:40;;;;;;;7.80;5.18;;;;;;;12.38;100.00;96125.44;6176813;23;20004;-70
2022/10/09 08:04:06;;;;;;;8.27;5.10;;;;;;;12.38;100.00;96121.94;6177952;23;20426;-70
2022/10/09 08:06:32;;;;;;;5.30;4.80;;;;;;;12.35;100.00;96127.53;6178446;23;20361;-70
2022/10/09 08:09:00;;;;;;;10.60;5.65;;;;;;;12.36;100.00;96119.44;6178485;23;20032;-72
2022/10/09 08:11:26;;;;;;;11.10;5.38;;;;;;;12.39;100.00;96121.81;6178134;23;20028;-71
2022/10/09 08:13:52;;;;;;;7.93;5.10;;;;;;;12.43;100.00;96122.34;6178181;23;20050;-73
2022/10/09 08:16:19;;;;;;;14.27;5.55;;;;;;;12.45;100.00;96121.25;6178043;23;20001;-72
2022/10/09 08:18:45;;;;;;;7.60;5.93;;;;;;;12.45;100.00;96117.75;6177771;23;20044;-71
2022/10/09 08:21:17;;;;;;;7.95;5.53;;;;;;;12.48;100.00;96122.75;6177987;23;20001;-68
2022/10/09 08:23:43;;;;;;;6.70;4.88;;;;;;;12.52;100.00;96118.88;6177491;23;20008;-69
2022/10/09 08:26:13;;;;;;;10.07;5.30;;;;;;;12.57;100.00;96118.41;6177416;23;19993;-68
2022/10/09 08:28:38;;;;;;;7.65;5.18;;;;;;;12.60;100.00;96121.63;6177878;23;20443;-68
2022/10/09 08:31:15;;;;;;;4.75;4.35;;;;;;;12.66;100.00;96120.22;6178125;23;20001;-70
2022/10/09 08:33:42;;;;;;;5.68;4.70;;;;;;;12.79;100.00;96124.31;6177471;23;20001;-68
2022/10/09 08:36:09;;;;;;;6.47;5.78;;;;;;;12.91;100.00;96120.53;6177738;23;20045;-68
2022/10/09 08:38:36;;;;;;;7.88;5.50;;;;;;;12.97;100.00;96122.56;6177475;23;20008;-73
2022/10/09 08:41:10;;;;;;;6.60;5.03;;;;;;;13.04;100.00;96114.91;6178422;23;19997;-73
2022/10/09 08:43:41;;;;;;;8.88;5.55;;;;;;;13.16;100.00;96110.25;6178024;23;19997;-75
2022/10/09 08:46:28;;;;;;;10.27;5.40;;;;;;;13.27;100.00;96117.13;6176431;23;20080;-75
2022/10/09 08:48:54;;;;;;;5.13;4.70;;;;;;;13.44;100.00;96124.31;6176691;23;20389;-74
2022/10/09 08:51:29;;;;;;;10.95;5.28;;;;;;;13.61;100.00;96113.91;6176445;23;20020;-75
2022/10/09 08:54:04;;;;;;;8.80;5.18;;;;;;;13.67;100.00;96117.72;6177001;23;20046;-75
2022/10/09 08:56:32;;;;;;;12.70;5.17;;;;;;;13.74;100.00;96111.69;6177853;23;20437;-64
2022/10/09 08:58:57;;;;;;;11.43;5.15;;;;;;;13.70;100.00;96118.28;6178033;22;20259;-63
2022/10/09 09:01:29;;;;;;;8.98;4.95;;;;;;;13.72;100.00;96121.59;6176438;23;20009;-63
2022/10/09 09:04:12;;;;;;;10.75;5.85;;;;;;;13.71;100.00;96109.34;6176167;23;20007;-64
2022/10/09 09:06:53;;;;;;;6.50;5.25;;;;;;;13.67;100.00;96112.44;6176869;23;20106;-64
2022/10/09 09:09:34;;;;;;;7.30;4.80;;;;;;;13.72;100.00;96102.25;6177944;23;20005;-65
2022/10/09 09:12:08;;;;;;;11.82;5.65;;;;;;;13.71;100.00;96109.34;6175992;23;20040;-64
2022/10/09 09:14:56;;;;;;;12.95;6.22;;;;;;;13.71;100.00;96104.06;6176130;23;20008;-64
2022/10/09 09:17:33;;;;;;;7.88;5.53;;;;;;;13.81;100.00;96103.97;6177123;23;20455;-74
2022/10/09 09:20:22;;;;;;;7.60;5.43;;;;;;;13.94;98.80;96108.88;6178079;23;20040;-64
2022/10/09 09:22:48;;;;;;;6.65;5.57;;;;;;;14.13;98.38;96112.34;6178168;22;20359;-64
2022/10/09 09:25:27;;;;;;;11.38;5.40;;;;;;;14.27;99.19;96108.31;6177964;22;20005;-63
2022/10/09 09:27:57;;;;;;;12.10;5.65;;;;;;;14.31;97.45;96102.56;6178035;23;20081;-63
2022/10/09 09:30:31;;;;;;;10.02;5.93;;;;;;;14.38;97.77;96101.91;6177400;23;20008;-64
2022/10/09 09:33:15;;;;;;;11.18;4.93;;;;;;;14.36;96.38;96101.25;6177791;23;20114;-64
2022/10/09 09:36:05;;;;;;;7.13;5.28;;;;;;;14.40;97.13;96102.59;6176721;23;20001;-68
2022/10/09 09:38:30;;;;;;;7.07;5.63;;;;;;;14.44;97.96;96098.66;6176909;23;20446;-68
2022/10/09 09:40:56;;;;;;;8.15;5.55;;;;;;;14.56;97.29;96097.41;6176826;23;20024;-68
2022/10/09 09:43:24;;;;;;;6.63;5.88;;;;;;;14.63;96.58;96102.06;6176678;23;20001;-68
2022/10/09 09:45:58;;;;;;;9.20;5.75;;;;;;;14.60;95.22;96100.59;6176712;23;19997;-68
2022/10/09 09:48:32;;;;;;;9.95;6.35;;;;;;;14.60;95.72;96095.28;6151070;23;20037;-67
2022/10/09 09:50:59;;;;;;;14.53;6.73;;;;;;;14.56;96.38;96100.06;6177432;23;20159;-68
2022/10/09 09:53:39;;;;;;;9.25;5.97;;;;;;;14.70;96.14;96100.44;6175766;23;20000;-68
2022/10/09 09:56:06;;;;;;;8.68;5.50;;;;;;;14.68;95.67;96095.31;6177419;23;20431;-64
2022/10/09 09:58:35;;;;;;;9.75;6.35;;;;;;;14.80;95.40;96087.94;6176832;23;20333;-59
2022/10/09 10:01:02;;;;;;;13.90;6.05;;;;;;;14.86;94.59;96087.31;6177513;23;20054;-60
2022/10/09 10:03:29;;;;;;;11.15;5.50;;;;;;;14.92;95.26;96095.59;6177320;23;20009;-60
2022/10/09 10:05:55;;;;;;;7.32;6.00;;;;;;;15.06;94.76;96092.34;6177707;23;20046;-60
2022/10/09 10:08:25;;;;;;;10.85;5.60;;;;;;;15.17;93.32;96093.88;6177740;23;20067;-60
2022/10/09 10:10:57;;;;;;;6.57;5.57;;;;;;;15.33;93.30;96085.13;6177648;23;20391;-59
2022/10/09 10:13:32;;;;;;;10.45;5.45;;;;;;;15.32;91.05;96083.47;6177485;22;20450;-64
2022/10/09 10:15:58;;;;;;;7.68;5.32;;;;;;;15.29;91.35;96081.16;6177412;22;20462;-68
2022/10/09 10:18:27;;;;;;;9.38;5.25;;;;;;;15.30;91.15;96080.16;6150615;22;20032;-64
2022/10/09 10:21:00;;;;;;;8.00;5.50;;;;;;;15.41;90.76;96087.81;6177174;23;20001;-64
2022/10/09 10:23:28;;;;;;;10.38;5.35;;;;;;;15.20;91.42;96080.31;6177596;23;20454;-64
2022/10/09 10:25:56;;;;;;;6.88;5.22;;;;;;;15.20;89.60;96075.00;6176637;23;20428;-64
2022/10/09 10:28:31;;;;;;;9.95;5.82;;;;;;;15.17;90.27;96078.81;6177307;23;20064;-64
2022/10/09 10:31:04;;;;;;;8.20;5.82;;;;;;;15.24;93.18;96064.91;6177269;22;20000;-64
2022/10/09 10:33:32;;;;;;;6.85;5.50;;;;;;;15.32;92.08;96063.09;6177521;23;20041;-68
2022/10/09 10:35:58;;;;;;;11.05;6.20;;;;;;;15.45;91.09;96064.44;6177386;23;20005;-68
2022/10/09 10:38:32;;;;;;;9.02;5.32;;;;;;;15.35;92.54;96058.47;6177306;23;20001;-68
2022/10/09 10:41:10;;;;;;;8.55;5.45;;;;;;;15.39;92.41;96054.50;6177472;23;20005;-68
2022/10/09 10:43:42;;;;;;;9.52;5.03;;;;;;;15.57;89.30;96057.84;6177383;23;20024;-68
2022/10/09 10:46:24;;;;;;;11.50;5.47;;;;;;;15.52;88.10;96062.81;6177263;23;20001;-68
2022/10/09 10:48:50;;;;;;;7.45;5.18;;;;;;;15.46;90.30;96053.66;6177455;23;20001;-68
2022/10/09 10:51:24;;;;;;;6.65;4.70;;;;;;;15.46;89.77;96043.06;6177464;22;20009;-67
2022/10/09 10:54:17;;;;;;;7.95;5.13;;;;;;;15.46;90.71;96045.72;6177440;23;20001;-70
2022/10/09 10:56:54;;;;;;;7.22;4.53;;;;;;;15.55;90.43;96043.91;6177397;23;20432;-64
2022/10/09 10:59:51;;;;;;;7.40;4.55;;;;;;;15.62;89.19;96046.72;6177328;22;20001;-64
2022/10/09 11:02:44;;;;;;;7.07;5.13;;;;;;;15.58;89.39;96042.72;6177616;23;20008;-64
2022/10/09 11:05:34;;;;;;;7.82;4.97;;;;;;;15.77;89.12;96041.59;6177281;23;20005;-64
2022/10/09 11:08:18;;;;;;;12.07;4.20;;;;;;;15.55;90.60;96033.28;6176838;23;20005;-64
2022/10/09 11:11:05;;;;;;;11.63;4.78;;;;;;;15.83;89.37;96035.59;6177627;23;20070;-67
2022/10/09 11:13:48;;;;;;;6.10;4.50;;;;;;;15.67;88.39;96032.94;6177311;23;19997;-60
2022/10/09 11:16:39;;;;;;;4.60;4.18;;;;;;;15.50;88.46;96027.66;6177225;23;20113;-74
2022/10/09 11:19:23;;;;;;;9.43;4.28;;;;;;;15.50;88.69;96037.41;6176623;23;20025;-74
2022/10/09 11:21:57;;;;;;;7.90;3.80;;;;;;;15.57;89.55;96031.28;6177426;23;20389;-74
2022/10/09 11:24:55;;;;;;;5.63;4.23;;;;;;;15.63;90.29;96032.47;6177082;23;20009;-75
2022/10/09 11:27:21;;;;;;;4.35;3.80;;;;;;;15.64;91.85;96031.47;6177086;23;20001;-74
2022/10/09 11:29:53;;;;;;;7.35;5.13;;;;;;;15.85;88.35;96023.00;6177600;23;20088;-73
2022/10/09 11:32:31;;;;;;;8.73;4.95;;;;;;;15.69;89.09;96013.22;6177364;23;20046;-64
2022/10/09 11:35:12;;;;;;;5.97;4.30;;;;;;;15.62;88.01;96017.53;6176786;23;20001;-64
2022/10/09 11:37:40;;;;;;;5.25;3.97;;;;;;;15.54;88.90;96018.38;6177722;23;20012;-64